< < Back
Terminal Aerodrome Forecast


Current Version              Previous Versions:   1  2  3  4  5  6  7  8  9  

Terminal Aerodrome Forecast

953
FTUS42 KMLB 302324
TAFMCO
TAF
KMCO 302324Z 3100/3124 VRB03KT P6SM FEW250
     FM310300 28005KT P6SM FEW050 SCT250
     FM311800 27011KT P6SM SCT050 BKN250=



Latest METAR

058
SAUS70 KWBC 310900 RRA
MTRMCO
METAR KMCO 310853Z 28005KT 10SM CLR 17/14 A3014 RMK AO2 SLP204 T01670139
56011


USA.gov is the U.S. government's official web portal to all federal, state and local government web resources and services.